BGJN

Ilulissat Airport

Ilulissat, Greenland

BGJN 190850Z AUTO 09008KT 9999NDV BKN041/// BKN075/// 08/02 Q1005

Observed Flight Rules
Aug-19 @ 08:50 UTC (32 minutes ago)
Unavailable
Wind Clouds
90° at 8 knots
  • Broken at 4,100' AGL
  • Broken at 7,500' AGL
Temperatures Readings
Current 8°C / 46°F
Dewpoint 2°C / 36°F
Humidity 66%
Altimeter 29.68" Hg
Pressure 1005 hPa
Elevation 25
Observed Flight Rules
Aug-19 @ 08:50 UTC
(32 minutes ago)
UNK
Wind
90° at 8 knots
Clouds
  • Broken at 4,100' AGL
  • Broken at 7,500' AGL
Temperature Dewpoint
8°C / 46°F 2°C / 36°F
Humidity Altimeter Pressure
66% 29.68" Hg 1005 hPa